Nearby METAR Reports

METAR is the scheduled surface weather observation taken hourly at civil and military airport locations.

METAR is an acronym from the French language and roughly translates as Aviation Routine Weather Report.

 

EGPL - Benbecula Island, United Kingdom
Distance from station: WNW 41mi, 66km
Updated: 21/02/2020 15:50
Nearby showers, Partly cloudy
Nearby showers, Partly cloudy
 Wind from WSW
Wind: WSW 36 mph , 57 km/h
Temperature: 8°C
Wind Chill: 2°C
Dew Point: 3°C
Humidity: 71%
Barometer: 992 hPa
Summary: Nearby Showers
Clouds: Partly cloudy
Visibility: 5 miles , 8 km
Cloud details: Few Clouds 457 m
Partly cloudy 1067 m
2020/02/21 15:50 EGPL 211550Z 25031KT 8000 VCSH FEW015 SCT035 08/03 Q0992
EGPU - Tiree Island, United Kingdom
Distance from station: SSW 56mi, 90km
Updated: 21/02/2020 15:50
Light rain, Partly cloudy
Light rain, Partly cloudy
 Wind from WSW
Wind: WSW 25 mph , 41 km/h
Temperature: 10°C
Wind Chill: 6°C
Dew Point: 7°C
Humidity: 82%
Barometer: 996 hPa
Summary: Light rain
Clouds: Partly cloudy
Visibility: 4 miles , 6 km
Cloud details: Partly cloudy 640 m
2020/02/21 15:50 EGPU 211550Z 25022KT 6000 -RA SCT021 10/07 Q0996
 
EGEO - Oban Airport, United Kingdom
Distance from station: SE 65mi, 105km
Updated: 21/02/2020 15:50
Nearby showers, Mostly cloudy
Nearby showers, Mostly cloudy
 Wind from WSW
Wind: WSW 20 mph , 31 km/h
Temperature: 9°C
Wind Chill: 5°C
Dew Point: 7°C
Humidity: 87%
Barometer: 998 hPa
Summary: Nearby Showers
Clouds: Mostly cloudy
Visibility: 6 miles , 10 km
Cloud details: Few Clouds 488 m
Mostly cloudy 914 m
2020/02/21 15:50 EGEO 211550Z 24017KT 9999 VCSH FEW016 BKN030 09/07 Q0998
EGPO - Stornoway, United Kingdom
Distance from station: 0 66mi, 106km
Updated: 21/02/2020 15:50
Nearby showers, Mostly cloudy
Nearby showers, Mostly cloudy
 Wind from WSW
Wind: WSW 29 mph , 46 km/h, Gust: 40 mph , 65 km/h
Temperature: 8°C
Wind Chill: 3°C
Dew Point: 4°C
Humidity: 76%
Barometer: 989 hPa
Summary: Nearby Showers
Clouds: Mostly cloudy
Visibility: 6 miles , 10 km
Cloud details: Few Clouds 488 m
Partly cloudy 853 m
Mostly cloudy 1402 m
2020/02/21 15:50 EGPO 211550Z 24025G35KT 9999 VCSH FEW016 SCT028 BKN046 08/04 Q0989
 
EGPE - Inverness/Dalcro, United Kingdom
Distance from station: ENE 88mi, 141km
Updated: 21/02/2020 15:50
Partly cloudy
Partly cloudy
 Wind from SSW
Wind: SSW 29 mph , 46 km/h, Gust: 45 mph , 72 km/h
Temperature: 11°C
Dew Point: 7°C
Humidity: 77%
Barometer: 992 hPa
Clouds: Partly cloudy
Visibility: 6 miles , 10 km
Cloud details: Few Clouds 366 m
Partly cloudy 518 m
2020/02/21 15:50 EGPE 211550Z 21025G39KT 9999 FEW012 SCT017 11/07 Q0992
EGQA - Tain Range (saws, United Kingdom
Distance from station: ENE 97mi, 156km
Updated: 21/02/2020 09:50
NOT Current
Light rain, Showers, Mostly cloudy
Light rain, Showers, Mostly cloudy
 Wind from SSW
Wind: SSW 22 mph , 35 km/h
Summary: Light rain, Showers
Clouds: Mostly cloudy
Visibility: 6 miles , 10 km
Cloud details: Partly cloudy 366 m
Mostly cloudy 610 m
2020/02/21 09:50 EGQA 210950Z 20019KT 9999 -SHRA SCT012CB BKN020 09/// Q0991 RMK GRN
 
EGQK - Kinloss Raf, United Kingdom
Distance from station: ENE 107mi, 171km
Updated: 21/02/2020 15:50
Few Clouds
Few Clouds
 Wind from SW
Wind: SW 23 mph , 37 km/h, Gust: 37 mph , 59 km/h
Temperature: 11°C
Dew Point: 7°C
Humidity: 77%
Barometer: 991 hPa
Clouds: Few Clouds
Visibility: 6 miles , 10 km
Cloud details: Few Clouds 1524 m
2020/02/21 15:50 EGQK 211550Z AUTO 23020G32KT 9999 FEW050/// 11/07 Q0991
EGPI - Islay/Port Ellen, United Kingdom
Distance from station: S 110mi, 177km
Updated: 21/02/2020 15:50
Rain, Mostly cloudy
Rain, Mostly cloudy
 Wind from SW
Wind: SW 23 mph , 37 km/h, Gust: 35 mph , 56 km/h
Temperature: 9°C
Wind Chill: 4°C
Dew Point: 9°C
Humidity: 100%
Barometer: 1000 hPa
Summary: Rain
Clouds: Mostly cloudy
Visibility: 4 miles , 6 km
Cloud details: Partly cloudy 305 m
Mostly cloudy 488 m
2020/02/21 15:50 EGPI 211550Z 23020G30KT 6000 RA SCT010 BKN016 09/09 Q1000
 
EGQS - Lossiemouth Raf, United Kingdom
Distance from station: ENE 117mi, 188km
Updated: 21/02/2020 15:50
Mostly cloudy
Mostly cloudy
 Wind from WSW
Wind: WSW 15 mph , 24 km/h
Temperature: 11°C
Dew Point: 7°C
Humidity: 77%
Barometer: 992 hPa
Clouds: Mostly cloudy
Visibility: 6 miles , 10 km
Cloud details: Few Clouds 671 m
Partly cloudy 1463 m
Mostly cloudy 3658 m
2020/02/21 15:50 EGQS 211550Z 25013KT 9999 FEW022 SCT048 BKN120 11/07 Q0992 TEMPO 7000 SHRA SCT018 RMK BLU TEMPO WHT
EGPF - Glasgow Airport, United Kingdom
Distance from station: SE 121mi, 195km
Updated: 21/02/2020 15:50
Light rain, Drizzle, Overcast
Light rain, Drizzle, Overcast
 Wind from SW
Wind: SW 26 mph , 43 km/h
Temperature: 9°C
Wind Chill: 4°C
Dew Point: 9°C
Humidity: 100%
Barometer: 1000 hPa
Summary: Light rain, Drizzle
Clouds: Overcast
Visibility: 1 mile , 2 km
Cloud details: Mostly cloudy 213 m
Overcast 1372 m
2020/02/21 15:50 EGPF 211550Z 22023KT 2300 -RADZ BKN007 OVC045 09/09 Q1000
 
EGEC - Campbeltown, United Kingdom
Distance from station: SSE 129mi, 207km
Updated: 21/02/2020 15:50
Mostly cloudy
Mostly cloudy
 Wind from SW
Wind: SW 25 mph , 41 km/h
Temperature: 11°C
Dew Point: 9°C
Humidity: 88%
Barometer: 1001 hPa
Clouds: Mostly cloudy
Visibility: 6 miles , 10 km
Cloud details: Few Clouds 396 m
Mostly cloudy 732 m
2020/02/21 15:50 EGEC 211550Z 23022KT 9999 FEW013 BKN024 11/09 Q1001
EGPN - Dundee/Riverside, United Kingdom
Distance from station: ESE 137mi, 221km
Updated: 21/02/2020 15:50
Light rain, Partly cloudy
Light rain, Partly cloudy
 Wind from WSW
Wind: WSW 22 mph , 35 km/h
Temperature: 8°C
Wind Chill: 3°C
Dew Point: 6°C
Humidity: 87%
Barometer: 998 hPa
Summary: Light rain
Clouds: Partly cloudy
Visibility: 6 miles , 10 km
Cloud details: Few Clouds 610 m
Partly cloudy 914 m
2020/02/21 15:50 EGPN 211550Z 24019KT 9999 -RA FEW020 SCT030 08/06 Q0998
 
EGPK - Prestwick(Civ/Na, United Kingdom
Distance from station: SSE 139mi, 224km
Updated: 21/02/2020 15:50
Light rain, Mostly cloudy
Light rain, Mostly cloudy
 Wind from SSW
Wind: SSW 24 mph , 39 km/h, Gust: 37 mph , 59 km/h
Temperature: 10°C
Wind Chill: 6°C
Dew Point: 9°C
Humidity: 94%
Barometer: 1002 hPa
Summary: Light rain
Clouds: Mostly cloudy
Visibility: 4 miles , 6 km
Cloud details: Mostly cloudy 366 m
2020/02/21 15:50 EGPK 211550Z 20021G32KT 6000 -RA BKN012 10/09 Q1002
EGQL - Leuchars Raf, United Kingdom
Distance from station: ESE 145mi, 233km
Updated: 21/02/2020 15:50
Mostly cloudy
Mostly cloudy
 Wind from WSW
Wind: WSW 29 mph , 46 km/h, Gust: 41 mph , 67 km/h
Temperature: 11°C
Dew Point: 8°C
Humidity: 82%
Barometer: 998 hPa
Clouds: Mostly cloudy
Visibility: 6 miles , 10 km
Cloud details: Mostly cloudy 457 m
Mostly cloudy 732 m
2020/02/21 15:50 EGQL 211550Z 24025G36KT 9999 BKN015 BKN024 11/08 Q0998 WHT
 
EGPH - Edinburgh Airpor, United Kingdom
Distance from station: SE 145mi, 234km
Updated: 21/02/2020 15:50
Mostly cloudy
Mostly cloudy
 Wind from SW
Wind: SW 22 mph , 35 km/h
Temperature: 10°C
Wind Chill: 6°C
Dew Point: 9°C
Humidity: 94%
Barometer: 1000 hPa
Clouds: Mostly cloudy
Visibility: 6 miles , 10 km
Cloud details: Mostly cloudy 488 m
2020/02/21 15:50 EGPH 211550Z 22019KT 9999 BKN016 10/09 Q1000
EGPC - Wick, United Kingdom
Distance from station: NE 146mi, 234km
Updated: 21/02/2020 15:50
Few Clouds
Few Clouds
 Wind from W
Wind: W 22 mph , 35 km/h, Gust: 33 mph , 54 km/h
Temperature: 9°C
Wind Chill: 5°C
Dew Point: 3°C
Humidity: 66%
Barometer: 990 hPa
Clouds: Few Clouds
Visibility: 6 miles , 10 km
Cloud details: Few Clouds 1097 m
2020/02/21 15:50 EGPC 211550Z 26019G29KT 9999 FEW036 09/03 Q0990

-

free counters
QR Code Twitter Scottish Weather Network UK Weather Network
Argyll House B & B

Argyll House B & B is situated in North West Skye and is the perfect base to see all that the Isle of Skye has to offer. Bookings are been taken for 2020 and 2021